sensor_id;sensor_type;location;lat;lon;timestamp;P1;durP1;ratioP1;P2;durP2;ratioP2
71038;SDS011;58692;43.212;27.908;2023-12-07T00:01:35;3.10;;;1.23;;
71038;SDS011;58692;43.212;27.908;2023-12-07T00:04:02;2.88;;;1.08;;
71038;SDS011;58692;43.212;27.908;2023-12-07T00:06:28;3.63;;;1.20;;
71038;SDS011;58692;43.212;27.908;2023-12-07T00:08:53;3.30;;;1.10;;
71038;SDS011;58692;43.212;27.908;2023-12-07T00:11:19;2.87;;;0.90;;
71038;SDS011;58692;43.212;27.908;2023-12-07T00:13:47;3.73;;;1.27;;
71038;SDS011;58692;43.212;27.908;2023-12-07T00:16:13;3.15;;;1.13;;
71038;SDS011;58692;43.212;27.908;2023-12-07T00:18:39;3.13;;;1.10;;
71038;SDS011;58692;43.212;27.908;2023-12-07T00:21:04;3.10;;;1.00;;
71038;SDS011;58692;43.212;27.908;2023-12-07T00:23:32;4.57;;;1.58;;
71038;SDS011;58692;43.212;27.908;2023-12-07T00:25:58;4.53;;;1.33;;
71038;SDS011;58692;43.212;27.908;2023-12-07T00:28:23;2.90;;;1.10;;
71038;SDS011;58692;43.212;27.908;2023-12-07T00:30:49;2.50;;;1.10;;
71038;SDS011;58692;43.212;27.908;2023-12-07T00:33:15;2.77;;;0.97;;
71038;SDS011;58692;43.212;27.908;2023-12-07T00:35:42;2.90;;;1.10;;
71038;SDS011;58692;43.212;27.908;2023-12-07T00:38:08;2.83;;;1.05;;
71038;SDS011;58692;43.212;27.908;2023-12-07T00:40:33;2.93;;;1.00;;
71038;SDS011;58692;43.212;27.908;2023-12-07T00:43:02;2.97;;;1.00;;
71038;SDS011;58692;43.212;27.908;2023-12-07T00:45:28;3.33;;;1.10;;
71038;SDS011;58692;43.212;27.908;2023-12-07T00:47:54;1.40;;;0.70;;
71038;SDS011;58692;43.212;27.908;2023-12-07T00:50:20;1.97;;;0.87;;
71038;SDS011;58692;43.212;27.908;2023-12-07T00:52:45;2.20;;;0.75;;
71038;SDS011;58692;43.212;27.908;2023-12-07T00:55:11;2.93;;;1.00;;
71038;SDS011;58692;43.212;27.908;2023-12-07T00:57:37;1.80;;;0.73;;
71038;SDS011;58692;43.212;27.908;2023-12-07T01:00:02;1.60;;;0.80;;
71038;SDS011;58692;43.212;27.908;2023-12-07T01:02:29;2.70;;;0.80;;
71038;SDS011;58692;43.212;27.908;2023-12-07T01:04:54;2.27;;;0.90;;
71038;SDS011;58692;43.212;27.908;2023-12-07T01:07:20;3.45;;;0.80;;
71038;SDS011;58692;43.212;27.908;2023-12-07T01:09:46;1.52;;;0.60;;
71038;SDS011;58692;43.212;27.908;2023-12-07T01:12:12;1.47;;;0.60;;
71038;SDS011;58692;43.212;27.908;2023-12-07T01:14:37;1.10;;;0.52;;
71038;SDS011;58692;43.212;27.908;2023-12-07T01:17:03;0.93;;;0.63;;
71038;SDS011;58692;43.212;27.908;2023-12-07T01:19:29;1.73;;;0.68;;
71038;SDS011;58692;43.212;27.908;2023-12-07T01:21:54;1.33;;;0.70;;
71038;SDS011;58692;43.212;27.908;2023-12-07T01:24:20;2.40;;;0.73;;
71038;SDS011;58692;43.212;27.908;2023-12-07T01:26:46;0.97;;;0.60;;
71038;SDS011;58692;43.212;27.908;2023-12-07T01:29:11;1.73;;;0.63;;
71038;SDS011;58692;43.212;27.908;2023-12-07T01:31:39;1.27;;;0.70;;
71038;SDS011;58692;43.212;27.908;2023-12-07T01:34:05;2.03;;;0.80;;
71038;SDS011;58692;43.212;27.908;2023-12-07T01:36:30;4.03;;;0.80;;
71038;SDS011;58692;43.212;27.908;2023-12-07T01:38:56;2.20;;;0.77;;
71038;SDS011;58692;43.212;27.908;2023-12-07T01:41:22;2.50;;;0.80;;
71038;SDS011;58692;43.212;27.908;2023-12-07T01:43:48;1.45;;;0.50;;
71038;SDS011;58692;43.212;27.908;2023-12-07T01:46:14;1.52;;;0.57;;
71038;SDS011;58692;43.212;27.908;2023-12-07T01:48:41;1.63;;;0.70;;
71038;SDS011;58692;43.212;27.908;2023-12-07T01:51:07;2.33;;;0.80;;
71038;SDS011;58692;43.212;27.908;2023-12-07T01:53:35;1.45;;;0.60;;
71038;SDS011;58692;43.212;27.908;2023-12-07T01:56:03;1.80;;;0.60;;
71038;SDS011;58692;43.212;27.908;2023-12-07T01:58:29;1.23;;;0.60;;
71038;SDS011;58692;43.212;27.908;2023-12-07T02:00:55;0.87;;;0.67;;
71038;SDS011;58692;43.212;27.908;2023-12-07T02:03:21;1.15;;;0.60;;
71038;SDS011;58692;43.212;27.908;2023-12-07T02:05:48;1.60;;;0.60;;
71038;SDS011;58692;43.212;27.908;2023-12-07T02:08:14;0.63;;;0.40;;
71038;SDS011;58692;43.212;27.908;2023-12-07T02:10:40;1.50;;;0.60;;
71038;SDS011;58692;43.212;27.908;2023-12-07T02:13:06;0.70;;;0.50;;
71038;SDS011;58692;43.212;27.908;2023-12-07T02:15:32;1.27;;;0.60;;
71038;SDS011;58692;43.212;27.908;2023-12-07T02:20:43;1.38;;;0.50;;
71038;SDS011;58692;43.212;27.908;2023-12-07T02:23:25;0.40;;;0.40;;
71038;SDS011;58692;43.212;27.908;2023-12-07T02:29:05;1.27;;;0.40;;
71038;SDS011;58692;43.212;27.908;2023-12-07T02:31:30;1.10;;;0.50;;
71038;SDS011;58692;43.212;27.908;2023-12-07T02:33:56;0.80;;;0.50;;
71038;SDS011;58692;43.212;27.908;2023-12-07T02:36:22;0.73;;;0.50;;
71038;SDS011;58692;43.212;27.908;2023-12-07T02:38:50;1.60;;;0.50;;
71038;SDS011;58692;43.212;27.908;2023-12-07T02:41:17;1.20;;;0.50;;
71038;SDS011;58692;43.212;27.908;2023-12-07T02:43:45;0.63;;;0.40;;
71038;SDS011;58692;43.212;27.908;2023-12-07T02:46:10;1.23;;;0.50;;
71038;SDS011;58692;43.212;27.908;2023-12-07T02:48:36;1.10;;;0.50;;
71038;SDS011;58692;43.212;27.908;2023-12-07T02:51:02;1.37;;;0.53;;
71038;SDS011;58692;43.212;27.908;2023-12-07T02:53:27;1.50;;;0.50;;
71038;SDS011;58692;43.212;27.908;2023-12-07T02:55:53;0.77;;;0.40;;
71038;SDS011;58692;43.212;27.908;2023-12-07T02:58:18;1.10;;;0.50;;
71038;SDS011;58692;43.212;27.908;2023-12-07T03:00:44;1.10;;;0.60;;
71038;SDS011;58692;43.212;27.908;2023-12-07T03:03:09;0.50;;;0.40;;
71038;SDS011;58692;43.212;27.908;2023-12-07T03:05:35;1.07;;;0.50;;
71038;SDS011;58692;43.212;27.908;2023-12-07T03:08:01;1.00;;;0.57;;
71038;SDS011;58692;43.212;27.908;2023-12-07T03:10:26;0.90;;;0.57;;
71038;SDS011;58692;43.212;27.908;2023-12-07T03:12:52;1.88;;;0.63;;
71038;SDS011;58692;43.212;27.908;2023-12-07T03:15:18;1.30;;;0.60;;
71038;SDS011;58692;43.212;27.908;2023-12-07T03:17:43;1.77;;;0.63;;
71038;SDS011;58692;43.212;27.908;2023-12-07T03:20:09;0.83;;;0.60;;
71038;SDS011;58692;43.212;27.908;2023-12-07T03:22:35;1.13;;;0.50;;
71038;SDS011;58692;43.212;27.908;2023-12-07T03:25:01;2.83;;;0.70;;
71038;SDS011;58692;43.212;27.908;2023-12-07T03:27:26;0.70;;;0.40;;
71038;SDS011;58692;43.212;27.908;2023-12-07T03:29:53;0.63;;;0.60;;
71038;SDS011;58692;43.212;27.908;2023-12-07T03:32:19;1.50;;;0.60;;
71038;SDS011;58692;43.212;27.908;2023-12-07T03:34:45;0.50;;;0.40;;
71038;SDS011;58692;43.212;27.908;2023-12-07T03:37:10;0.90;;;0.55;;
71038;SDS011;58692;43.212;27.908;2023-12-07T03:39:36;1.48;;;0.70;;
71038;SDS011;58692;43.212;27.908;2023-12-07T03:42:02;1.60;;;0.70;;
71038;SDS011;58692;43.212;27.908;2023-12-07T03:44:28;1.25;;;0.60;;
71038;SDS011;58692;43.212;27.908;2023-12-07T03:46:54;0.65;;;0.50;;
71038;SDS011;58692;43.212;27.908;2023-12-07T03:49:20;1.13;;;0.53;;
71038;SDS011;58692;43.212;27.908;2023-12-07T03:51:45;2.05;;;0.80;;
71038;SDS011;58692;43.212;27.908;2023-12-07T03:54:11;1.30;;;0.70;;
71038;SDS011;58692;43.212;27.908;2023-12-07T03:56:36;2.27;;;0.70;;
71038;SDS011;58692;43.212;27.908;2023-12-07T03:59:02;1.43;;;0.70;;
71038;SDS011;58692;43.212;27.908;2023-12-07T04:01:28;1.00;;;0.60;;
71038;SDS011;58692;43.212;27.908;2023-12-07T04:03:55;1.13;;;0.60;;
71038;SDS011;58692;43.212;27.908;2023-12-07T04:06:22;0.60;;;0.50;;
71038;SDS011;58692;43.212;27.908;2023-12-07T04:08:48;2.05;;;0.90;;
71038;SDS011;58692;43.212;27.908;2023-12-07T04:11:14;0.93;;;0.50;;
71038;SDS011;58692;43.212;27.908;2023-12-07T04:13:40;1.15;;;0.75;;
71038;SDS011;58692;43.212;27.908;2023-12-07T04:16:06;2.15;;;0.88;;
71038;SDS011;58692;43.212;27.908;2023-12-07T04:18:32;1.60;;;0.80;;
71038;SDS011;58692;43.212;27.908;2023-12-07T04:20:58;2.53;;;0.87;;
71038;SDS011;58692;43.212;27.908;2023-12-07T04:23:24;2.25;;;1.02;;
71038;SDS011;58692;43.212;27.908;2023-12-07T04:25:50;3.03;;;1.03;;
71038;SDS011;58692;43.212;27.908;2023-12-07T04:28:15;1.63;;;0.80;;
71038;SDS011;58692;43.212;27.908;2023-12-07T04:30:41;2.23;;;0.90;;
71038;SDS011;58692;43.212;27.908;2023-12-07T04:33:06;1.73;;;1.00;;
71038;SDS011;58692;43.212;27.908;2023-12-07T04:35:32;2.20;;;0.90;;
71038;SDS011;58692;43.212;27.908;2023-12-07T04:37:59;1.90;;;0.90;;
71038;SDS011;58692;43.212;27.908;2023-12-07T04:40:25;2.70;;;1.20;;
71038;SDS011;58692;43.212;27.908;2023-12-07T04:42:51;3.05;;;1.00;;
71038;SDS011;58692;43.212;27.908;2023-12-07T04:45:17;3.97;;;1.40;;
71038;SDS011;58692;43.212;27.908;2023-12-07T04:47:43;3.15;;;1.20;;
71038;SDS011;58692;43.212;27.908;2023-12-07T04:50:08;3.78;;;1.35;;
71038;SDS011;58692;43.212;27.908;2023-12-07T04:52:35;3.77;;;1.37;;
71038;SDS011;58692;43.212;27.908;2023-12-07T04:55:01;3.45;;;1.38;;
71038;SDS011;58692;43.212;27.908;2023-12-07T04:57:26;3.10;;;1.23;;
71038;SDS011;58692;43.212;27.908;2023-12-07T04:59:52;3.37;;;1.30;;
71038;SDS011;58692;43.212;27.908;2023-12-07T05:02:17;4.10;;;1.38;;
71038;SDS011;58692;43.212;27.908;2023-12-07T05:04:44;2.63;;;1.07;;
71038;SDS011;58692;43.212;27.908;2023-12-07T05:07:11;3.20;;;1.13;;
71038;SDS011;58692;43.212;27.908;2023-12-07T05:09:38;1.65;;;0.90;;
71038;SDS011;58692;43.212;27.908;2023-12-07T05:12:04;3.85;;;1.33;;
71038;SDS011;58692;43.212;27.908;2023-12-07T05:14:31;2.47;;;1.20;;
71038;SDS011;58692;43.212;27.908;2023-12-07T05:16:57;3.22;;;1.17;;
71038;SDS011;58692;43.212;27.908;2023-12-07T05:19:31;3.55;;;1.15;;
71038;SDS011;58692;43.212;27.908;2023-12-07T05:21:57;3.17;;;1.30;;
71038;SDS011;58692;43.212;27.908;2023-12-07T05:24:22;3.38;;;1.20;;
71038;SDS011;58692;43.212;27.908;2023-12-07T05:26:48;3.77;;;1.20;;
71038;SDS011;58692;43.212;27.908;2023-12-07T05:29:14;3.95;;;1.20;;
71038;SDS011;58692;43.212;27.908;2023-12-07T05:31:40;3.67;;;1.30;;
71038;SDS011;58692;43.212;27.908;2023-12-07T05:34:06;2.93;;;1.20;;
71038;SDS011;58692;43.212;27.908;2023-12-07T05:36:32;3.30;;;1.30;;
71038;SDS011;58692;43.212;27.908;2023-12-07T05:38:58;3.42;;;1.33;;
71038;SDS011;58692;43.212;27.908;2023-12-07T05:41:24;4.87;;;1.50;;
71038;SDS011;58692;43.212;27.908;2023-12-07T05:43:50;3.88;;;1.58;;
71038;SDS011;58692;43.212;27.908;2023-12-07T05:46:18;3.47;;;1.52;;
71038;SDS011;58692;43.212;27.908;2023-12-07T05:48:44;2.83;;;1.20;;
71038;SDS011;58692;43.212;27.908;2023-12-07T05:51:13;3.77;;;1.50;;
71038;SDS011;58692;43.212;27.908;2023-12-07T05:53:41;4.38;;;1.70;;
71038;SDS011;58692;43.212;27.908;2023-12-07T05:56:07;4.95;;;1.80;;
71038;SDS011;58692;43.212;27.908;2023-12-07T05:58:33;4.83;;;1.73;;
71038;SDS011;58692;43.212;27.908;2023-12-07T06:00:59;4.93;;;1.70;;
71038;SDS011;58692;43.212;27.908;2023-12-07T06:03:26;5.22;;;1.88;;
71038;SDS011;58692;43.212;27.908;2023-12-07T06:05:55;4.80;;;1.93;;
71038;SDS011;58692;43.212;27.908;2023-12-07T06:08:21;4.95;;;2.05;;
71038;SDS011;58692;43.212;27.908;2023-12-07T06:10:47;4.18;;;1.80;;
71038;SDS011;58692;43.212;27.908;2023-12-07T06:13:13;4.80;;;1.80;;
71038;SDS011;58692;43.212;27.908;2023-12-07T06:15:39;5.57;;;1.73;;
71038;SDS011;58692;43.212;27.908;2023-12-07T06:18:05;5.88;;;2.30;;
71038;SDS011;58692;43.212;27.908;2023-12-07T06:20:31;6.90;;;2.55;;
71038;SDS011;58692;43.212;27.908;2023-12-07T06:22:57;8.80;;;2.10;;
71038;SDS011;58692;43.212;27.908;2023-12-07T06:25:23;6.47;;;2.13;;
71038;SDS011;58692;43.212;27.908;2023-12-07T06:27:49;5.53;;;2.10;;
71038;SDS011;58692;43.212;27.908;2023-12-07T06:30:15;5.23;;;1.90;;
71038;SDS011;58692;43.212;27.908;2023-12-07T06:32:40;4.00;;;1.75;;
71038;SDS011;58692;43.212;27.908;2023-12-07T06:35:06;7.70;;;2.80;;
71038;SDS011;58692;43.212;27.908;2023-12-07T06:37:32;5.75;;;2.13;;
71038;SDS011;58692;43.212;27.908;2023-12-07T06:39:58;7.18;;;2.40;;
71038;SDS011;58692;43.212;27.908;2023-12-07T06:42:25;5.82;;;2.47;;
71038;SDS011;58692;43.212;27.908;2023-12-07T06:44:51;5.17;;;2.20;;
71038;SDS011;58692;43.212;27.908;2023-12-07T06:47:19;6.10;;;2.33;;
71038;SDS011;58692;43.212;27.908;2023-12-07T06:49:45;6.57;;;2.37;;
71038;SDS011;58692;43.212;27.908;2023-12-07T06:52:11;9.93;;;2.93;;
71038;SDS011;58692;43.212;27.908;2023-12-07T06:54:37;6.95;;;2.75;;
71038;SDS011;58692;43.212;27.908;2023-12-07T06:57:04;7.93;;;2.42;;
71038;SDS011;58692;43.212;27.908;2023-12-07T06:59:32;5.88;;;2.38;;
71038;SDS011;58692;43.212;27.908;2023-12-07T07:01:58;5.70;;;2.20;;
71038;SDS011;58692;43.212;27.908;2023-12-07T07:04:24;7.90;;;2.60;;
71038;SDS011;58692;43.212;27.908;2023-12-07T07:06:50;5.78;;;2.30;;
71038;SDS011;58692;43.212;27.908;2023-12-07T07:09:16;6.65;;;2.45;;
71038;SDS011;58692;43.212;27.908;2023-12-07T07:11:46;5.50;;;2.43;;
71038;SDS011;58692;43.212;27.908;2023-12-07T07:14:13;7.32;;;2.08;;
71038;SDS011;58692;43.212;27.908;2023-12-07T07:16:41;5.35;;;2.25;;
71038;SDS011;58692;43.212;27.908;2023-12-07T07:19:08;4.88;;;1.90;;
71038;SDS011;58692;43.212;27.908;2023-12-07T07:21:33;4.33;;;2.00;;
71038;SDS011;58692;43.212;27.908;2023-12-07T07:24:02;6.35;;;1.80;;
71038;SDS011;58692;43.212;27.908;2023-12-07T07:26:28;4.70;;;2.03;;
71038;SDS011;58692;43.212;27.908;2023-12-07T07:28:54;5.13;;;1.97;;
71038;SDS011;58692;43.212;27.908;2023-12-07T07:31:20;4.20;;;1.50;;
71038;SDS011;58692;43.212;27.908;2023-12-07T07:33:45;5.68;;;2.00;;
71038;SDS011;58692;43.212;27.908;2023-12-07T07:36:13;5.63;;;2.20;;
71038;SDS011;58692;43.212;27.908;2023-12-07T07:38:40;5.80;;;2.40;;
71038;SDS011;58692;43.212;27.908;2023-12-07T07:41:07;5.55;;;2.17;;
71038;SDS011;58692;43.212;27.908;2023-12-07T07:43:33;7.35;;;2.00;;
71038;SDS011;58692;43.212;27.908;2023-12-07T07:46:00;4.90;;;1.98;;
71038;SDS011;58692;43.212;27.908;2023-12-07T07:48:26;4.22;;;1.92;;
71038;SDS011;58692;43.212;27.908;2023-12-07T07:50:52;5.13;;;2.20;;
71038;SDS011;58692;43.212;27.908;2023-12-07T07:53:17;6.68;;;2.13;;
71038;SDS011;58692;43.212;27.908;2023-12-07T07:55:46;6.13;;;2.10;;
71038;SDS011;58692;43.212;27.908;2023-12-07T07:58:12;5.70;;;2.05;;
71038;SDS011;58692;43.212;27.908;2023-12-07T08:00:43;5.60;;;2.30;;
71038;SDS011;58692;43.212;27.908;2023-12-07T08:03:12;4.90;;;2.00;;
71038;SDS011;58692;43.212;27.908;2023-12-07T08:05:38;5.30;;;2.00;;
71038;SDS011;58692;43.212;27.908;2023-12-07T08:08:04;5.82;;;1.88;;
71038;SDS011;58692;43.212;27.908;2023-12-07T08:10:29;6.20;;;1.90;;
71038;SDS011;58692;43.212;27.908;2023-12-07T08:12:59;5.87;;;2.17;;
71038;SDS011;58692;43.212;27.908;2023-12-07T08:15:27;5.97;;;2.03;;
71038;SDS011;58692;43.212;27.908;2023-12-07T08:17:55;5.43;;;2.08;;
71038;SDS011;58692;43.212;27.908;2023-12-07T08:20:21;5.55;;;2.10;;
71038;SDS011;58692;43.212;27.908;2023-12-07T08:22:50;4.80;;;2.03;;
71038;SDS011;58692;43.212;27.908;2023-12-07T08:25:15;6.00;;;1.80;;
71038;SDS011;58692;43.212;27.908;2023-12-07T08:27:42;5.97;;;2.00;;
71038;SDS011;58692;43.212;27.908;2023-12-07T08:30:10;6.93;;;2.10;;
71038;SDS011;58692;43.212;27.908;2023-12-07T08:32:36;6.40;;;2.50;;
71038;SDS011;58692;43.212;27.908;2023-12-07T08:35:03;6.88;;;2.20;;
71038;SDS011;58692;43.212;27.908;2023-12-07T08:37:30;5.80;;;2.30;;
71038;SDS011;58692;43.212;27.908;2023-12-07T08:39:57;7.60;;;2.53;;
71038;SDS011;58692;43.212;27.908;2023-12-07T08:42:23;5.73;;;2.00;;
71038;SDS011;58692;43.212;27.908;2023-12-07T08:44:48;6.70;;;2.47;;
71038;SDS011;58692;43.212;27.908;2023-12-07T08:47:14;5.40;;;2.00;;
71038;SDS011;58692;43.212;27.908;2023-12-07T08:49:42;4.90;;;2.10;;
71038;SDS011;58692;43.212;27.908;2023-12-07T08:52:16;4.90;;;1.90;;
71038;SDS011;58692;43.212;27.908;2023-12-07T08:54:43;5.32;;;2.15;;
71038;SDS011;58692;43.212;27.908;2023-12-07T08:57:17;11.77;;;4.10;;
71038;SDS011;58692;43.212;27.908;2023-12-07T08:59:44;10.50;;;4.07;;
71038;SDS011;58692;43.212;27.908;2023-12-07T09:02:13;7.28;;;2.92;;
71038;SDS011;58692;43.212;27.908;2023-12-07T09:04:39;8.85;;;2.55;;
71038;SDS011;58692;43.212;27.908;2023-12-07T09:07:05;6.63;;;2.80;;
71038;SDS011;58692;43.212;27.908;2023-12-07T09:09:31;3.78;;;1.60;;
71038;SDS011;58692;43.212;27.908;2023-12-07T09:11:58;4.43;;;2.08;;
71038;SDS011;58692;43.212;27.908;2023-12-07T09:14:24;8.80;;;2.00;;
71038;SDS011;58692;43.212;27.908;2023-12-07T09:16:51;4.85;;;2.10;;
71038;SDS011;58692;43.212;27.908;2023-12-07T09:22:19;5.85;;;2.00;;
71038;SDS011;58692;43.212;27.908;2023-12-07T09:24:47;4.22;;;1.60;;
71038;SDS011;58692;43.212;27.908;2023-12-07T09:27:13;3.80;;;1.47;;
71038;SDS011;58692;43.212;27.908;2023-12-07T09:29:41;5.45;;;1.90;;
71038;SDS011;58692;43.212;27.908;2023-12-07T09:32:07;7.10;;;2.43;;
71038;SDS011;58692;43.212;27.908;2023-12-07T09:34:34;4.70;;;1.90;;
71038;SDS011;58692;43.212;27.908;2023-12-07T09:37:08;6.00;;;1.95;;
71038;SDS011;58692;43.212;27.908;2023-12-07T09:39:51;4.93;;;2.00;;
71038;SDS011;58692;43.212;27.908;2023-12-07T09:42:44;4.97;;;1.95;;
71038;SDS011;58692;43.212;27.908;2023-12-07T09:45:10;5.30;;;2.10;;
71038;SDS011;58692;43.212;27.908;2023-12-07T09:47:41;5.95;;;2.30;;
71038;SDS011;58692;43.212;27.908;2023-12-07T09:50:08;9.52;;;4.03;;
71038;SDS011;58692;43.212;27.908;2023-12-07T09:52:35;8.82;;;3.10;;
71038;SDS011;58692;43.212;27.908;2023-12-07T09:55:02;6.40;;;2.45;;
71038;SDS011;58692;43.212;27.908;2023-12-07T09:57:37;6.20;;;2.33;;
71038;SDS011;58692;43.212;27.908;2023-12-07T10:00:08;11.30;;;3.90;;
71038;SDS011;58692;43.212;27.908;2023-12-07T10:02:40;4.75;;;2.20;;
71038;SDS011;58692;43.212;27.908;2023-12-07T10:05:09;5.85;;;2.20;;
71038;SDS011;58692;43.212;27.908;2023-12-07T10:07:40;5.27;;;1.90;;
71038;SDS011;58692;43.212;27.908;2023-12-07T10:10:07;4.68;;;1.80;;
71038;SDS011;58692;43.212;27.908;2023-12-07T10:12:34;6.78;;;2.30;;
71038;SDS011;58692;43.212;27.908;2023-12-07T10:15:12;8.68;;;4.07;;
71038;SDS011;58692;43.212;27.908;2023-12-07T10:17:49;7.25;;;2.65;;
71038;SDS011;58692;43.212;27.908;2023-12-07T10:20:23;7.00;;;2.97;;
71038;SDS011;58692;43.212;27.908;2023-12-07T10:23:04;6.65;;;2.70;;
71038;SDS011;58692;43.212;27.908;2023-12-07T10:25:36;5.65;;;2.38;;
71038;SDS011;58692;43.212;27.908;2023-12-07T10:28:03;7.57;;;2.60;;
71038;SDS011;58692;43.212;27.908;2023-12-07T10:30:32;6.38;;;2.40;;
71038;SDS011;58692;43.212;27.908;2023-12-07T10:33:05;7.50;;;3.27;;
71038;SDS011;58692;43.212;27.908;2023-12-07T10:35:32;9.13;;;3.30;;
71038;SDS011;58692;43.212;27.908;2023-12-07T10:37:57;7.78;;;2.83;;
71038;SDS011;58692;43.212;27.908;2023-12-07T10:40:23;9.07;;;3.53;;
71038;SDS011;58692;43.212;27.908;2023-12-07T10:42:49;7.47;;;2.72;;
71038;SDS011;58692;43.212;27.908;2023-12-07T10:45:25;7.97;;;2.77;;
71038;SDS011;58692;43.212;27.908;2023-12-07T10:47:54;7.32;;;2.95;;
71038;SDS011;58692;43.212;27.908;2023-12-07T10:50:31;7.55;;;3.30;;
71038;SDS011;58692;43.212;27.908;2023-12-07T10:53:00;8.90;;;3.13;;
71038;SDS011;58692;43.212;27.908;2023-12-07T10:55:42;8.15;;;3.03;;
71038;SDS011;58692;43.212;27.908;2023-12-07T10:58:19;9.47;;;3.70;;
71038;SDS011;58692;43.212;27.908;2023-12-07T11:00:51;9.15;;;4.05;;
71038;SDS011;58692;43.212;27.908;2023-12-07T11:03:18;9.15;;;3.85;;
71038;SDS011;58692;43.212;27.908;2023-12-07T11:05:45;10.00;;;4.17;;
71038;SDS011;58692;43.212;27.908;2023-12-07T11:08:14;9.63;;;4.70;;
71038;SDS011;58692;43.212;27.908;2023-12-07T11:11:12;9.43;;;4.53;;
71038;SDS011;58692;43.212;27.908;2023-12-07T11:13:57;10.00;;;4.35;;
71038;SDS011;58692;43.212;27.908;2023-12-07T11:16:35;8.75;;;4.28;;
71038;SDS011;58692;43.212;27.908;2023-12-07T11:22:12;12.50;;;5.23;;
71038;SDS011;58692;43.212;27.908;2023-12-07T11:27:26;10.50;;;4.88;;
71038;SDS011;58692;43.212;27.908;2023-12-07T11:29:55;10.43;;;4.55;;
71038;SDS011;58692;43.212;27.908;2023-12-07T11:32:27;12.52;;;5.78;;
71038;SDS011;58692;43.212;27.908;2023-12-07T11:34:53;11.23;;;5.37;;
71038;SDS011;58692;43.212;27.908;2023-12-07T11:37:19;9.52;;;4.32;;
71038;SDS011;58692;43.212;27.908;2023-12-07T11:39:45;10.30;;;4.57;;
71038;SDS011;58692;43.212;27.908;2023-12-07T11:42:14;10.70;;;4.70;;
71038;SDS011;58692;43.212;27.908;2023-12-07T11:44:42;10.30;;;4.27;;
71038;SDS011;58692;43.212;27.908;2023-12-07T11:47:09;10.25;;;4.38;;
71038;SDS011;58692;43.212;27.908;2023-12-07T11:49:45;10.40;;;4.88;;
71038;SDS011;58692;43.212;27.908;2023-12-07T11:52:12;10.50;;;4.57;;
71038;SDS011;58692;43.212;27.908;2023-12-07T11:54:49;11.38;;;5.10;;
71038;SDS011;58692;43.212;27.908;2023-12-07T11:57:16;9.73;;;3.90;;
71038;SDS011;58692;43.212;27.908;2023-12-07T11:59:44;9.57;;;4.43;;
71038;SDS011;58692;43.212;27.908;2023-12-07T12:02:10;12.73;;;5.07;;
71038;SDS011;58692;43.212;27.908;2023-12-07T12:04:46;9.18;;;4.18;;
71038;SDS011;58692;43.212;27.908;2023-12-07T12:07:11;9.52;;;4.00;;
71038;SDS011;58692;43.212;27.908;2023-12-07T12:09:37;9.53;;;4.27;;
71038;SDS011;58692;43.212;27.908;2023-12-07T12:12:02;11.20;;;4.13;;
71038;SDS011;58692;43.212;27.908;2023-12-07T12:14:28;11.75;;;4.13;;
71038;SDS011;58692;43.212;27.908;2023-12-07T12:16:55;8.70;;;3.40;;
71038;SDS011;58692;43.212;27.908;2023-12-07T12:19:21;10.40;;;3.75;;
71038;SDS011;58692;43.212;27.908;2023-12-07T12:21:49;13.07;;;4.20;;
71038;SDS011;58692;43.212;27.908;2023-12-07T12:24:21;10.00;;;4.32;;
71038;SDS011;58692;43.212;27.908;2023-12-07T12:26:46;9.95;;;4.50;;
71038;SDS011;58692;43.212;27.908;2023-12-07T12:29:13;8.45;;;3.83;;
71038;SDS011;58692;43.212;27.908;2023-12-07T12:31:39;8.90;;;3.87;;
71038;SDS011;58692;43.212;27.908;2023-12-07T12:34:06;12.20;;;3.88;;
71038;SDS011;58692;43.212;27.908;2023-12-07T12:36:34;9.27;;;4.10;;
71038;SDS011;58692;43.212;27.908;2023-12-07T12:39:00;9.52;;;4.28;;
71038;SDS011;58692;43.212;27.908;2023-12-07T12:41:27;9.00;;;3.85;;
71038;SDS011;58692;43.212;27.908;2023-12-07T12:43:56;9.97;;;4.00;;
71038;SDS011;58692;43.212;27.908;2023-12-07T12:46:22;8.30;;;3.42;;
71038;SDS011;58692;43.212;27.908;2023-12-07T12:48:55;7.95;;;3.25;;
71038;SDS011;58692;43.212;27.908;2023-12-07T12:51:23;8.37;;;3.70;;
71038;SDS011;58692;43.212;27.908;2023-12-07T12:53:51;8.35;;;3.17;;
71038;SDS011;58692;43.212;27.908;2023-12-07T12:56:19;10.02;;;3.95;;
71038;SDS011;58692;43.212;27.908;2023-12-07T12:58:47;9.60;;;3.42;;
71038;SDS011;58692;43.212;27.908;2023-12-07T13:01:16;9.68;;;3.65;;
71038;SDS011;58692;43.212;27.908;2023-12-07T13:03:43;7.97;;;3.50;;
71038;SDS011;58692;43.212;27.908;2023-12-07T13:06:11;6.57;;;2.78;;
71038;SDS011;58692;43.212;27.908;2023-12-07T13:08:40;9.20;;;3.85;;
71038;SDS011;58692;43.212;27.908;2023-12-07T13:11:12;9.05;;;3.42;;
71038;SDS011;58692;43.212;27.908;2023-12-07T13:13:40;9.23;;;3.28;;
71038;SDS011;58692;43.212;27.908;2023-12-07T13:16:06;7.33;;;2.77;;
71038;SDS011;58692;43.212;27.908;2023-12-07T13:18:32;6.75;;;2.58;;
71038;SDS011;58692;43.212;27.908;2023-12-07T13:20:57;7.00;;;2.47;;
71038;SDS011;58692;43.212;27.908;2023-12-07T13:23:24;9.88;;;3.17;;
71038;SDS011;58692;43.212;27.908;2023-12-07T13:25:50;6.95;;;2.58;;
71038;SDS011;58692;43.212;27.908;2023-12-07T13:28:16;6.68;;;2.30;;
71038;SDS011;58692;43.212;27.908;2023-12-07T13:30:42;7.77;;;2.80;;
71038;SDS011;58692;43.212;27.908;2023-12-07T13:33:08;6.47;;;2.20;;
71038;SDS011;58692;43.212;27.908;2023-12-07T13:35:34;5.35;;;1.70;;
71038;SDS011;58692;43.212;27.908;2023-12-07T13:38:00;4.67;;;1.97;;
71038;SDS011;58692;43.212;27.908;2023-12-07T13:40:26;4.80;;;1.90;;
71038;SDS011;58692;43.212;27.908;2023-12-07T13:42:52;5.38;;;2.13;;
71038;SDS011;58692;43.212;27.908;2023-12-07T13:45:18;5.23;;;1.90;;
71038;SDS011;58692;43.212;27.908;2023-12-07T13:47:43;4.18;;;1.92;;
71038;SDS011;58692;43.212;27.908;2023-12-07T13:50:09;3.87;;;1.60;;
71038;SDS011;58692;43.212;27.908;2023-12-07T13:52:36;5.30;;;2.00;;
71038;SDS011;58692;43.212;27.908;2023-12-07T13:55:03;5.25;;;1.92;;
71038;SDS011;58692;43.212;27.908;2023-12-07T13:57:29;7.78;;;2.90;;
71038;SDS011;58692;43.212;27.908;2023-12-07T13:59:55;5.03;;;2.03;;
71038;SDS011;58692;43.212;27.908;2023-12-07T14:02:21;6.05;;;2.25;;
71038;SDS011;58692;43.212;27.908;2023-12-07T14:04:49;5.67;;;2.10;;
71038;SDS011;58692;43.212;27.908;2023-12-07T14:07:18;5.82;;;2.30;;
71038;SDS011;58692;43.212;27.908;2023-12-07T14:09:46;5.13;;;2.20;;
71038;SDS011;58692;43.212;27.908;2023-12-07T14:12:16;5.15;;;1.92;;
71038;SDS011;58692;43.212;27.908;2023-12-07T14:14:43;5.53;;;2.20;;
71038;SDS011;58692;43.212;27.908;2023-12-07T14:17:12;5.47;;;1.97;;
71038;SDS011;58692;43.212;27.908;2023-12-07T14:19:39;4.63;;;1.92;;
71038;SDS011;58692;43.212;27.908;2023-12-07T14:22:05;5.85;;;2.20;;
71038;SDS011;58692;43.212;27.908;2023-12-07T14:24:31;6.03;;;2.13;;
71038;SDS011;58692;43.212;27.908;2023-12-07T14:26:57;6.72;;;1.90;;
71038;SDS011;58692;43.212;27.908;2023-12-07T14:29:23;6.77;;;2.47;;
71038;SDS011;58692;43.212;27.908;2023-12-07T14:31:50;7.03;;;2.65;;
71038;SDS011;58692;43.212;27.908;2023-12-07T14:34:16;7.20;;;2.30;;
71038;SDS011;58692;43.212;27.908;2023-12-07T14:36:43;8.27;;;2.75;;
71038;SDS011;58692;43.212;27.908;2023-12-07T14:39:11;5.03;;;2.00;;
71038;SDS011;58692;43.212;27.908;2023-12-07T14:41:42;8.80;;;3.10;;
71038;SDS011;58692;43.212;27.908;2023-12-07T14:44:13;6.25;;;2.30;;
71038;SDS011;58692;43.212;27.908;2023-12-07T14:46:41;8.32;;;2.78;;
71038;SDS011;58692;43.212;27.908;2023-12-07T14:49:12;8.52;;;3.45;;